Burbank, CA (91508)

10:34 AM PDT on July 30, 2015 (GMT -0700)
Magnolia Park | | Change Station
CLOSE
Current Station
Personal Weather Station
Location: Burbank, CA
Elevation: 556 ft
Nearby Weather Stations

Elev 556 ft 34.17 °N, 118.33 °W | Updated 4 minutes ago

Clear
Clear
76.2 °F
Feels Like 78 °F
N
0.0
Wind Variable Wind from NE
Gusts 4.0 mph

Today
High -- | Low -- °F
--% Chance of Precip.
Yesterday
High -- | Low -- °F
Precip. -- in
6:02 AM 7:56 PM
Waxing Gibbous, 99% visible
Pressure 29.97 in
Visibility 10.0 miles
Clouds Clear
Heat Index 78 °F
Dew Point 67 °F
Humidity 73%
Rainfall 0.00 in
Snow Depth Not available.
UV 6 out of 12
Pollen 2.60 out of 12
Air Quality Not available.
Flu Activity Not available.
METAR KBUR 301653Z AUTO 14003KT 10SM CLR 24/17 A3001 RMK AO2 RAB21E34 SLP149 P0000 T02440172 TSNO $

More Conditions Fewer Conditions

Pressure 29.97 in
Visibility 10.0 miles
Clouds Clear
Heat Index 78 °F
Dew Point 67 °F
Humidity 73%
Rainfall 0.00 in
Snow Depth Not available.
UV 6 out of 12
Pollen 2.60 out of 12
Air Quality Not available.
Flu Activity Not available.
METAR KBUR 301653Z AUTO 14003KT 10SM CLR 24/17 A3001 RMK AO2 RAB21E34 SLP149 P0000 T02440172 TSNO $

More Conditions Fewer Conditions

Nowcast | as of 8:22 am PDT on July 30, 2015

At 812 am PDT National Weather Service Doppler radar was indicating an area of showers moving across Los Angeles County to the northwest at just under 15 mph. This area is expected to move into the Pasadena and Alhambra areas within the hour and possibly continue into the Burbank and Glendale areas shortly thereafter. These showers are capable of producing rainfall rates of around a third of an inch per hour which could produce brief localized flooding of roadways. Although lightning has yet to be detected with this cell ...it still may produce dangerous lightning over the next hour or so. Additional showers and thunderstorms may develop and re- develop through the day and this evening.

×

10-Day Weather Forecast

×

Almanac

Astronomy

Jul. 30, 2015 Rise Set
Actual Time
Civil Twilight
Nautical Twilight
Astronomical Twilight
Moon
Length of Visible Light
Length of Day
Tomorrow will be .
, % of the Moon is Illuminated

Today's Extremes

State Highs State Lows

Community

WunderPhotos

Upload Photos

1,842,427 photos uploaded!

WunderBlogs® & News

Nearby

Air Quality

  Air Quality AQ Index Pollutant
Not available.

Snow Depth

Station Depth Elevation

Earthquake Activity

City Distance Mag. Time & Date
Minimum magnitude displayed is 2.5.

Coastal Water Temperatures

Place Temperature

Stations

Nearby Weather Stations

Station Location Temp. Windchill Dew Point Humidity Wind Precip. Elev Updated Type